Time;durP1;ratioP1;P1;durP2;ratioP2;P2;SDS_P1;SDS_P2;PMS_P1;PMS_P2;Temp;Humidity;BMP_temperature;BMP_pressure;BME280_temperature;BME280_humidity;BME280_pressure;Samples;Min_cycle;Max_cycle;Signal;HPM_P1;HPM_P2
2022/03/06 00:01:16;;;;;;;2.53;2.37;;;-0.40;51.40;-1.40;98559.00;;;;5114813;28;20213;-77
2022/03/06 00:03:45;;;;;;;3.23;2.40;;;-0.40;51.30;-1.30;98544.00;;;;5114958;28;20649;-77
2022/03/06 00:06:13;;;;;;;3.00;1.63;;;-0.40;52.00;-1.40;98551.00;;;;5114424;28;20563;-76
2022/03/06 00:08:42;;;;;;;1.40;1.40;;;-0.40;51.70;-1.40;98557.00;;;;5115065;28;20277;-77
2022/03/06 00:11:09;;;;;;;2.73;1.70;;;-0.40;51.90;-1.50;98531.00;;;;5114709;28;20245;-77
2022/03/06 00:13:36;;;;;;;1.70;1.60;;;-0.50;52.00;-1.60;98556.00;;;;5114909;28;20208;-77
2022/03/06 00:16:02;;;;;;;2.97;2.27;;;-0.60;51.80;-1.60;98558.00;;;;5114657;28;20269;-77
2022/03/06 00:18:29;;;;;;;2.77;2.57;;;-0.70;52.40;-1.50;98542.00;;;;5114734;28;20263;-77
2022/03/06 00:20:58;;;;;;;5.07;3.57;;;-0.60;52.60;-1.40;98549.00;;;;5114706;28;20229;-77
2022/03/06 00:23:25;;;;;;;5.30;2.60;;;-0.50;53.00;-1.50;98544.00;;;;5114625;28;20216;-77
2022/03/06 00:25:52;;;;;;;1.80;1.70;;;-0.60;52.40;-1.60;98546.00;;;;5114594;28;20224;-76
2022/03/06 00:28:19;;;;;;;1.73;1.63;;;-0.60;52.70;-1.70;98539.00;;;;5114429;28;20668;-77
2022/03/06 00:30:48;;;;;;;4.43;1.87;;;-0.70;52.60;-1.60;98544.00;;;;5114578;28;20206;-77
2022/03/06 00:33:15;;;;;;;3.80;3.17;;;-0.60;53.00;-1.50;98549.00;;;;5096626;28;20267;-77
2022/03/06 00:35:41;;;;;;;2.13;2.03;;;-0.60;53.00;-1.40;98549.00;;;;5114452;28;20272;-76
2022/03/06 00:38:08;;;;;;;1.17;1.17;;;-0.60;53.20;-1.40;98549.00;;;;5114370;28;20333;-76
2022/03/06 00:40:34;;;;;;;2.63;2.43;;;-0.50;53.50;-1.40;98555.00;;;;5114372;28;20190;-77
2022/03/06 00:43:01;;;;;;;2.30;2.20;;;-0.50;53.30;-1.20;98543.00;;;;5114303;28;20193;-77
2022/03/06 00:45:28;;;;;;;2.23;2.13;;;-0.40;54.30;-1.30;98551.00;;;;5114207;28;20277;-77
2022/03/06 00:47:55;;;;;;;1.20;1.20;;;-0.40;53.00;-1.20;98547.00;;;;5114122;28;20281;-77
2022/03/06 00:50:21;;;;;;;1.97;1.87;;;-0.40;53.00;-1.10;98550.00;;;;5114265;28;20304;-76
2022/03/06 00:52:48;;;;;;;2.33;2.23;;;-0.30;53.30;-1.10;98549.00;;;;5114213;28;20184;-76
2022/03/06 00:55:14;;;;;;;3.03;2.27;;;-0.30;53.10;-1.00;98552.00;;;;5114204;28;20496;-77
2022/03/06 00:57:41;;;;;;;2.17;2.07;;;-0.20;53.00;-1.00;98563.00;;;;5114355;28;20264;-77
2022/03/06 01:00:09;;;;;;;1.47;1.43;;;-0.20;52.70;-1.00;98571.00;;;;5114171;28;20292;-77
2022/03/06 01:02:36;;;;;;;2.03;1.83;;;-0.10;52.70;-0.90;98562.00;;;;5114103;28;20263;-77
2022/03/06 01:05:04;;;;;;;2.50;2.37;;;-0.10;53.00;-1.00;98561.00;;;;5114115;28;20214;-77
2022/03/06 01:07:30;;;;;;;4.00;3.03;;;-0.10;52.60;-1.20;98557.00;;;;5113897;28;20245;-77
2022/03/06 01:09:59;;;;;;;3.67;2.73;;;-0.20;52.90;-1.20;98561.00;;;;5114048;28;20197;-77
2022/03/06 01:12:26;;;;;;;1.80;1.70;;;-0.20;52.90;-1.20;98564.00;;;;5095991;28;20229;-77
2022/03/06 01:14:55;;;;;;;2.10;1.47;;;-0.30;52.90;-1.20;98566.00;;;;5114025;28;20198;-78
2022/03/06 01:17:21;;;;;;;2.80;2.60;;;-0.30;53.10;-1.00;98566.00;;;;5115745;28;20194;-78
2022/03/06 01:19:49;;;;;;;2.67;2.47;;;-0.20;53.50;-1.10;98564.00;;;;5099545;28;20293;-78
2022/03/06 01:22:18;;;;;;;2.97;2.77;;;-0.10;53.10;-1.10;98559.00;;;;5117523;28;20202;-77
2022/03/06 01:24:47;;;;;;;3.80;2.27;;;-0.20;53.10;-1.00;98565.00;;;;5117580;28;20258;-77
2022/03/06 01:27:14;;;;;;;4.63;3.90;;;-0.20;53.10;-1.20;98563.00;;;;5117475;28;20222;-77
2022/03/06 01:29:40;;;;;;;3.93;1.60;;;-0.20;52.90;-1.30;98574.00;;;;5117155;28;20748;-77
2022/03/06 01:32:08;;;;;;;1.57;1.53;;;-0.30;52.90;-1.30;98572.00;;;;5117263;28;20197;-77
2022/03/06 01:34:34;;;;;;;2.67;2.20;;;-0.40;53.00;-1.20;98567.00;;;;5117222;28;20221;-77
2022/03/06 01:37:01;;;;;;;7.33;2.03;;;-0.40;53.60;-1.30;98570.00;;;;5117353;28;20193;-77
2022/03/06 01:39:28;;;;;;;2.10;1.97;;;-0.40;53.40;-1.40;98569.00;;;;5117353;28;20205;-77
2022/03/06 01:41:54;;;;;;;2.37;2.23;;;-0.50;53.50;-1.50;98563.00;;;;5117321;28;20287;-77
2022/03/06 01:44:24;;;;;;;1.90;1.80;;;-0.50;54.00;-1.40;98564.00;;;;5117071;28;20221;-77
2022/03/06 01:46:50;;;;;;;3.37;2.17;;;-0.50;54.40;-1.40;98561.00;;;;5116841;28;20232;-77
2022/03/06 01:49:19;;;;;;;2.90;2.13;;;-0.50;54.30;-1.40;98566.00;;;;5116847;28;20556;-77
2022/03/06 01:51:45;;;;;;;2.10;1.97;;;-0.50;54.00;-1.40;98551.00;;;;5116937;28;20302;-77
2022/03/06 01:54:13;;;;;;;2.90;2.70;;;-0.40;53.90;-1.40;98549.00;;;;5117114;28;20261;-76
2022/03/06 01:56:41;;;;;;;2.77;2.57;;;-0.40;54.00;-1.40;98536.00;;;;5099117;28;20571;-77
2022/03/06 01:59:10;;;;;;;2.17;1.97;;;-0.50;54.70;-1.50;98552.00;;;;5117115;28;20203;-77
2022/03/06 02:01:37;;;;;;;1.43;1.40;;;-0.60;53.70;-1.50;98553.00;;;;5117186;28;20198;-77
2022/03/06 02:04:04;;;;;;;2.87;2.60;;;-0.60;53.70;-1.60;98546.00;;;;5117331;28;20347;-76
2022/03/06 02:06:31;;;;;;;1.70;1.50;;;-0.60;53.60;-1.60;98547.00;;;;5119670;28;20221;-76
2022/03/06 02:08:57;;;;;;;2.77;2.57;;;-0.70;54.20;-1.60;98537.00;;;;5110780;28;20296;-77
2022/03/06 02:11:27;;;;;;;1.30;1.30;;;-0.70;54.70;-1.50;98546.00;;;;5127674;28;20205;-77
2022/03/06 02:13:55;;;;;;;2.60;2.30;;;-0.70;54.30;-1.50;98535.00;;;;5119781;28;20217;-78
2022/03/06 02:16:23;;;;;;;1.40;1.40;;;-0.60;54.40;-1.70;98548.00;;;;5125694;28;20218;-77
2022/03/06 02:18:50;;;;;;;2.37;1.80;;;-0.80;54.10;-1.80;98541.00;;;;5118844;28;20198;-77
2022/03/06 02:21:17;;;;;;;3.27;2.97;;;-0.80;54.60;-1.90;98539.00;;;;5130064;28;20201;-77
2022/03/06 02:23:45;;;;;;;3.23;2.10;;;-0.90;54.80;-2.00;98548.00;;;;5128789;28;20205;-77
2022/03/06 02:26:11;;;;;;;1.77;1.67;;;-1.00;54.80;-1.90;98550.00;;;;5119046;28;20235;-77
2022/03/06 02:28:38;;;;;;;1.47;1.43;;;-1.00;55.20;-1.90;98545.00;;;;5116053;28;20200;-76
2022/03/06 02:31:05;;;;;;;2.47;2.27;;;-0.90;55.40;-1.90;98552.00;;;;5116114;28;20225;-77
2022/03/06 02:33:31;;;;;;;3.03;2.70;;;-1.00;55.40;-1.90;98530.00;;;;5116278;28;20270;-77
2022/03/06 02:35:58;;;;;;;4.07;2.50;;;-1.00;55.30;-1.90;98543.00;;;;5116245;28;20656;-77
2022/03/06 02:38:25;;;;;;;2.17;1.53;;;-1.00;55.50;-2.00;98541.00;;;;5116189;28;20296;-77
2022/03/06 02:40:53;;;;;;;1.93;1.50;;;-1.00;56.50;-2.10;98541.00;;;;5116369;28;20224;-78
2022/03/06 02:43:22;;;;;;;1.97;1.80;;;-1.10;55.70;-2.10;98528.00;;;;5116189;28;20221;-78
2022/03/06 02:45:51;;;;;;;4.17;2.90;;;-1.10;55.80;-2.00;98544.00;;;;5116122;28;20260;-77
2022/03/06 02:48:18;;;;;;;2.90;1.33;;;-1.10;55.90;-2.00;98541.00;;;;5098171;28;20243;-77
2022/03/06 02:50:45;;;;;;;2.27;2.13;;;-1.10;55.10;-2.20;98538.00;;;;5116013;28;20202;-77
2022/03/06 02:53:12;;;;;;;1.93;1.53;;;-1.20;55.10;-2.00;98545.00;;;;5115943;28;20247;-76
2022/03/06 02:55:42;;;;;;;2.50;2.30;;;-1.10;55.40;-2.20;98542.00;;;;5115947;28;20201;-77
2022/03/06 02:58:09;;;;;;;1.67;1.57;;;-1.20;55.50;-2.30;98540.00;;;;5115847;28;20651;-77
2022/03/06 03:00:38;;;;;;;1.90;1.80;;;-1.30;56.00;-2.30;98549.00;;;;5115935;28;20201;-77
2022/03/06 03:03:05;;;;;;;1.70;1.60;;;-1.30;56.10;-2.20;98540.00;;;;5115889;28;20232;-78
2022/03/06 03:05:34;;;;;;;2.97;2.30;;;-1.30;57.00;-2.20;98541.00;;;;5115603;28;20233;-77
2022/03/06 03:08:03;;;;;;;2.07;1.90;;;-1.30;56.30;-2.20;98552.00;;;;5115782;28;20208;-77
2022/03/06 03:10:30;;;;;;;1.50;1.40;;;-1.30;56.10;-2.40;98547.00;;;;5115567;28;20224;-77
2022/03/06 03:12:57;;;;;;;0.97;0.97;;;-1.40;55.70;-2.50;98528.00;;;;5115716;28;20225;-78
2022/03/06 03:15:24;;;;;;;4.40;2.93;;;-1.50;55.90;-2.60;98527.00;;;;5097743;28;20196;-78
2022/03/06 03:17:50;;;;;;;3.90;3.43;;;-1.60;55.90;-2.50;98546.00;;;;5115712;28;20216;-78
2022/03/06 03:20:18;;;;;;;2.10;2.00;;;-1.50;56.20;-2.50;98550.00;;;;5115654;28;20279;-77
2022/03/06 03:22:47;;;;;;;2.43;2.33;;;-1.60;56.10;-2.50;98548.00;;;;5115643;28;20219;-77
2022/03/06 03:25:14;;;;;;;1.73;1.63;;;-1.60;56.50;-2.70;98547.00;;;;5115602;28;20215;-77
2022/03/06 03:27:40;;;;;;;1.80;1.70;;;-1.70;56.30;-2.80;98549.00;;;;5115377;28;20534;-78
2022/03/06 03:30:10;;;;;;;1.10;1.10;;;-1.80;56.60;-2.80;98555.00;;;;5115497;28;20568;-78
2022/03/06 03:32:38;;;;;;;2.47;2.33;;;-1.80;56.60;-2.70;98548.00;;;;5115264;28;20575;-78
2022/03/06 03:35:06;;;;;;;1.53;1.43;;;-1.70;56.80;-2.70;98544.00;;;;5116024;28;20223;-77
2022/03/06 03:37:32;;;;;;;1.60;1.50;;;-1.70;56.80;-2.70;98552.00;;;;5116752;28;20613;-77
2022/03/06 03:40:00;;;;;;;1.33;1.23;;;-1.70;56.60;-2.60;98560.00;;;;5115514;28;20216;-78
2022/03/06 03:42:26;;;;;;;2.30;1.87;;;-1.70;56.90;-2.70;98552.00;;;;5115269;28;20204;-77
2022/03/06 03:44:55;;;;;;;2.27;1.67;;;-1.80;56.80;-2.70;98563.00;;;;5115116;28;20244;-77
2022/03/06 03:47:24;;;;;;;2.23;2.13;;;-1.70;56.80;-2.80;98558.00;;;;5115324;28;20221;-77
2022/03/06 03:49:53;;;;;;;1.97;1.87;;;-1.70;56.30;-2.90;98565.00;;;;5096993;28;20236;-77
2022/03/06 03:52:20;;;;;;;1.53;1.47;;;-1.80;56.10;-3.00;98569.00;;;;5115210;28;20202;-77
2022/03/06 03:54:47;;;;;;;2.53;2.43;;;-1.80;56.50;-3.00;98562.00;;;;5114911;28;20197;-79
2022/03/06 03:57:14;;;;;;;1.50;1.10;;;-2.00;56.30;-3.00;98582.00;;;;5114923;28;20252;-78
2022/03/06 03:59:40;;;;;;;2.60;2.10;;;-2.00;56.90;-3.10;98566.00;;;;5097412;28;20563;-78
2022/03/06 04:02:07;;;;;;;1.57;1.47;;;-2.10;57.30;-3.00;98582.00;;;;5115116;28;20196;-78
2022/03/06 04:04:38;;;;;;;3.23;2.23;;;-2.10;57.80;-3.00;98574.00;;;;5096810;28;20574;-77
2022/03/06 04:07:04;;;;;;;1.30;1.20;;;-2.00;57.50;-3.20;98573.00;;;;5114691;28;20526;-78
2022/03/06 04:09:31;;;;;;;5.40;2.70;;;-2.10;57.30;-3.20;98581.00;;;;5114922;28;20197;-78
2022/03/06 04:11:57;;;;;;;1.13;1.13;;;-2.10;57.80;-3.10;98586.00;;;;5114933;28;20224;-76
2022/03/06 04:14:24;;;;;;;2.63;2.27;;;-2.10;58.40;-3.30;98593.00;;;;5097014;28;20226;-77
2022/03/06 04:16:51;;;;;;;1.83;1.73;;;-2.20;57.40;-3.30;98602.00;;;;5114777;28;20199;-77
2022/03/06 04:19:17;;;;;;;3.27;2.97;;;-2.20;57.40;-3.30;98597.00;;;;5114624;28;20214;-78
2022/03/06 04:21:45;;;;;;;0.93;0.93;;;-2.20;57.80;-3.10;98599.00;;;;5114730;28;20399;-78
2022/03/06 04:24:12;;;;;;;1.73;1.63;;;-2.10;57.80;-3.10;98599.00;;;;5096557;28;20228;-77
2022/03/06 04:26:39;;;;;;;1.10;1.10;;;-2.20;57.60;-3.00;98610.00;;;;5114784;28;20216;-78
2022/03/06 04:29:05;;;;;;;2.23;2.13;;;-2.20;57.80;-3.40;98602.00;;;;5114534;28;20225;-78
2022/03/06 04:31:32;;;;;;;1.97;1.77;;;-2.30;57.90;-3.40;98603.00;;;;5114697;28;20243;-77
2022/03/06 04:34:01;;;;;;;10.60;2.87;;;-2.30;58.60;-3.10;98591.00;;;;5096539;28;20300;-77
2022/03/06 04:36:27;;;;;;;1.43;1.37;;;-2.20;58.90;-3.00;98612.00;;;;5114509;28;20195;-77
2022/03/06 04:38:58;;;;;;;1.20;1.20;;;-2.20;58.30;-3.00;98604.00;;;;5114578;28;20285;-77
2022/03/06 04:41:25;;;;;;;1.60;1.33;;;-2.10;58.10;-3.10;98604.00;;;;5114360;28;20534;-77
2022/03/06 04:43:52;;;;;;;4.43;2.60;;;-2.20;57.70;-3.20;98604.00;;;;5114436;28;20206;-79
2022/03/06 04:46:19;;;;;;;1.83;1.73;;;-2.20;57.40;-3.20;98586.00;;;;5114073;28;20311;-78
2022/03/06 04:48:48;;;;;;;2.23;2.13;;;-2.20;57.40;-3.40;98613.00;;;;5114313;28;20201;-78
2022/03/06 04:51:14;;;;;;;2.13;2.00;;;-2.30;56.90;-3.50;98600.00;;;;5115828;28;20219;-78
2022/03/06 04:53:42;;;;;;;2.63;2.53;;;-2.40;57.70;-3.50;98605.00;;;;5117977;28;20308;-78
2022/03/06 04:56:10;;;;;;;1.57;1.47;;;-2.40;58.20;-3.60;98610.00;;;;5118019;28;20262;-78
2022/03/06 04:58:39;;;;;;;2.30;2.10;;;-2.50;58.20;-3.70;98598.00;;;;5117915;28;20221;-78
2022/03/06 05:01:07;;;;;;;1.50;1.43;;;-2.50;58.50;-3.40;98614.00;;;;5117990;28;20246;-79
2022/03/06 05:03:34;;;;;;;1.40;1.30;;;-2.40;58.40;-3.50;98612.00;;;;5117694;28;20192;-78
2022/03/06 05:06:00;;;;;;;6.10;1.70;;;-2.50;58.40;-3.50;98610.00;;;;5117739;28;20222;-78
2022/03/06 05:08:27;;;;;;;2.17;2.07;;;-2.50;58.10;-3.50;98610.00;;;;5117671;28;20227;-78
2022/03/06 05:10:55;;;;;;;2.73;1.57;;;-2.50;58.20;-3.60;98618.00;;;;5117818;28;20279;-78
2022/03/06 05:13:24;;;;;;;9.60;2.37;;;-2.50;58.10;-3.50;98614.00;;;;5117578;28;20273;-77
2022/03/06 05:15:51;;;;;;;2.03;1.93;;;-2.50;58.10;-3.40;98609.00;;;;5117639;28;20199;-78
2022/03/06 05:18:18;;;;;;;2.13;2.03;;;-2.50;57.80;-3.60;98615.00;;;;5117586;28;20211;-78
2022/03/06 05:20:47;;;;;;;3.23;1.47;;;-2.50;57.90;-3.50;98622.00;;;;5117494;28;20243;-77
2022/03/06 05:23:13;;;;;;;2.70;2.47;;;-2.50;58.20;-3.40;98626.00;;;;5117613;28;20193;-78
2022/03/06 05:25:40;;;;;;;1.97;1.87;;;-2.50;58.60;-3.30;98622.00;;;;5117276;28;20223;-76
2022/03/06 05:28:06;;;;;;;4.03;2.47;;;-2.50;58.40;-3.40;98632.00;;;;5117492;28;20580;-77
2022/03/06 05:30:36;;;;;;;5.37;2.60;;;-2.50;58.10;-3.50;98628.00;;;;5117301;28;20307;-77
2022/03/06 05:33:04;;;;;;;2.17;2.07;;;-2.50;58.20;-3.50;98623.00;;;;5117303;28;20208;-77
2022/03/06 05:35:31;;;;;;;5.30;1.80;;;-2.50;58.40;-3.70;98630.00;;;;5117260;28;20210;-77
2022/03/06 05:37:57;;;;;;;13.33;2.63;;;-2.60;58.20;-3.60;98628.00;;;;5117887;28;20215;-77
2022/03/06 05:40:24;;;;;;;2.63;1.90;;;-2.60;58.50;-3.70;98632.00;;;;5117403;28;20329;-78
2022/03/06 05:42:51;;;;;;;4.60;2.40;;;-2.60;58.40;-3.70;98634.00;;;;5117896;28;20231;-77
2022/03/06 05:45:17;;;;;;;5.10;1.57;;;-2.70;58.60;-3.70;98644.00;;;;5120349;28;20206;-78
2022/03/06 05:47:45;;;;;;;1.23;1.23;;;-2.60;58.90;-3.60;98640.00;;;;5129175;28;20334;-77
2022/03/06 05:50:13;;;;;;;2.40;2.30;;;-2.60;59.00;-3.60;98639.00;;;;5125506;28;20199;-78
2022/03/06 05:52:40;;;;;;;2.23;1.73;;;-2.60;59.00;-3.50;98642.00;;;;5117955;28;20220;-78
2022/03/06 05:55:09;;;;;;;2.13;2.03;;;-2.60;59.00;-3.60;98635.00;;;;5119429;28;20213;-77
2022/03/06 05:57:36;;;;;;;2.27;2.17;;;-2.60;58.90;-3.50;98638.00;;;;5118468;28;20234;-75
2022/03/06 06:00:08;;;;;;;3.00;2.80;;;-2.60;59.10;-3.50;98638.00;;;;5129125;28;20203;-76
2022/03/06 06:02:36;;;;;;;1.63;1.53;;;-2.60;58.90;-3.60;98645.00;;;;5127428;28;20222;-77
2022/03/06 06:05:07;;;;;;;2.53;2.43;;;-2.60;58.50;-3.70;98650.00;;;;5116962;28;20279;-77
2022/03/06 06:07:34;;;;;;;3.33;2.27;;;-2.60;58.40;-3.60;98649.00;;;;5098801;28;20222;-77
2022/03/06 06:10:01;;;;;;;2.17;2.00;;;-2.60;58.80;-3.60;98645.00;;;;5116605;28;20312;-77
2022/03/06 06:12:28;;;;;;;2.23;2.13;;;-2.60;58.90;-3.60;98654.00;;;;5116709;28;20227;-78
2022/03/06 06:14:54;;;;;;;2.23;1.93;;;-2.60;59.20;-3.60;98649.00;;;;5116476;28;20212;-76
2022/03/06 06:17:21;;;;;;;4.97;1.97;;;-2.60;59.70;-3.60;98645.00;;;;5098805;28;20203;-78
2022/03/06 06:19:48;;;;;;;1.13;1.13;;;-2.60;59.00;-3.50;98643.00;;;;5116826;28;20286;-77
2022/03/06 06:22:17;;;;;;;1.83;1.73;;;-2.60;59.90;-3.40;98653.00;;;;5116561;28;20651;-77
2022/03/06 06:24:44;;;;;;;7.90;2.53;;;-2.50;59.40;-3.40;98652.00;;;;5116521;28;20208;-77
2022/03/06 06:27:10;;;;;;;1.57;1.50;;;-2.50;59.10;-3.40;98650.00;;;;5116264;28;20697;-77
2022/03/06 06:29:37;;;;;;;2.67;2.10;;;-2.50;59.00;-3.20;98656.00;;;;5116366;28;20219;-76
2022/03/06 06:32:07;;;;;;;1.20;1.20;;;-2.30;59.50;-3.30;98656.00;;;;5116228;28;20687;-77
2022/03/06 06:34:33;;;;;;;2.13;2.03;;;-2.30;58.90;-3.10;98657.00;;;;5116332;28;20195;-78
2022/03/06 06:37:00;;;;;;;1.87;1.77;;;-2.20;59.00;-3.30;98660.00;;;;5116426;28;20215;-78
2022/03/06 06:39:30;;;;;;;1.80;1.73;;;-2.20;57.90;-3.20;98663.00;;;;5098457;28;20225;-77
2022/03/06 06:41:57;;;;;;;1.70;1.60;;;-2.20;59.30;-3.00;98668.00;;;;5116500;28;20193;-77
2022/03/06 06:44:23;;;;;;;4.63;1.77;;;-2.10;58.70;-3.00;98654.00;;;;5116315;28;20257;-77
2022/03/06 06:46:50;;;;;;;2.77;2.57;;;-2.10;58.60;-2.90;98652.00;;;;5125648;28;20290;-77
2022/03/06 06:49:16;;;;;;;1.07;1.07;;;-2.00;58.40;-2.90;98648.00;;;;5125868;28;20220;-77
2022/03/06 06:51:43;;;;;;;2.33;2.13;;;-1.90;58.30;-2.90;98664.00;;;;5127572;28;20216;-77
2022/03/06 06:54:09;;;;;;;2.87;2.00;;;-1.90;58.20;-2.90;98651.00;;;;5120689;28;20230;-77
2022/03/06 06:56:36;;;;;;;3.27;2.23;;;-1.90;58.60;-2.90;98664.00;;;;5116708;28;20216;-77
2022/03/06 06:59:03;;;;;;;3.10;2.90;;;-1.90;58.90;-3.00;98656.00;;;;5119255;28;20279;-77
2022/03/06 07:01:29;;;;;;;3.97;2.40;;;-1.90;59.20;-2.90;98656.00;;;;5121545;28;20258;-78
2022/03/06 07:03:56;;;;;;;1.53;1.47;;;-1.90;59.70;-2.90;98663.00;;;;5124832;28;20200;-77
2022/03/06 07:06:22;;;;;;;4.60;2.33;;;-1.90;59.70;-3.00;98660.00;;;;5126988;28;20287;-77
2022/03/06 07:08:49;;;;;;;1.30;1.27;;;-1.90;59.80;-2.90;98660.00;;;;5122360;28;20658;-77
2022/03/06 07:11:18;;;;;;;3.90;1.83;;;-1.80;60.10;-2.70;98670.00;;;;5115859;28;20217;-78
2022/03/06 07:13:45;;;;;;;5.23;1.87;;;-1.80;60.40;-2.50;98669.00;;;;5115770;28;20203;-78
2022/03/06 07:16:12;;;;;;;1.90;1.80;;;-1.70;60.10;-2.50;98670.00;;;;5115608;28;20235;-78
2022/03/06 07:18:38;;;;;;;2.00;1.70;;;-1.50;59.60;-2.40;98669.00;;;;5115718;28;20191;-77
2022/03/06 07:21:04;;;;;;;1.40;1.40;;;-1.50;57.90;-2.40;98664.00;;;;5115456;28;20207;-78
2022/03/06 07:23:32;;;;;;;2.30;2.17;;;-1.50;58.60;-2.30;98672.00;;;;5114567;28;20244;-78
2022/03/06 07:25:59;;;;;;;2.33;2.13;;;-1.40;58.30;-2.40;98667.00;;;;5115492;28;20556;-78
2022/03/06 07:28:26;;;;;;;5.33;2.80;;;-1.40;58.00;-2.30;98674.00;;;;5115236;28;20247;-78
2022/03/06 07:30:53;;;;;;;3.20;3.00;;;-1.30;58.00;-2.40;98659.00;;;;5115449;28;20248;-78
2022/03/06 07:33:21;;;;;;;2.17;2.07;;;-1.30;57.90;-2.40;98675.00;;;;5115113;28;20563;-76
2022/03/06 07:35:48;;;;;;;1.93;1.83;;;-1.30;58.00;-2.20;98668.00;;;;5115426;28;20186;-77
2022/03/06 07:38:17;;;;;;;1.37;1.37;;;-1.30;58.20;-2.30;98671.00;;;;5115373;28;20204;-78
2022/03/06 07:40:44;;;;;;;2.27;2.17;;;;;-2.20;98664.00;;;;5115277;28;20195;-77
2022/03/06 07:43:11;;;;;;;1.47;1.43;;;-1.20;57.60;-2.10;98670.00;;;;5115227;28;20201;-78
2022/03/06 07:45:38;;;;;;;1.63;1.53;;;-1.10;58.20;-2.00;98679.00;;;;5115001;28;20228;-78
2022/03/06 07:48:05;;;;;;;3.77;2.77;;;-1.10;58.40;-2.00;98676.00;;;;5115121;28;20220;-78
2022/03/06 07:50:32;;;;;;;4.50;2.57;;;-1.00;58.30;-1.80;98676.00;;;;5097187;28;20221;-78
2022/03/06 07:52:59;;;;;;;2.00;1.83;;;-0.90;58.50;-1.80;98679.00;;;;5115336;28;20218;-77
2022/03/06 07:55:26;;;;;;;2.17;2.07;;;-0.80;58.60;-1.70;98682.00;;;;5115064;28;20648;-78
2022/03/06 07:57:52;;;;;;;2.57;2.37;;;-0.70;58.50;-1.60;98692.00;;;;5097259;28;20200;-78
2022/03/06 08:00:21;;;;;;;1.07;1.07;;;-0.70;58.60;-1.50;98687.00;;;;5097108;28;20236;-78
2022/03/06 08:02:48;;;;;;;1.93;1.80;;;-0.50;58.70;-1.30;98691.00;;;;5114917;28;20245;-77
2022/03/06 08:05:15;;;;;;;4.60;2.47;;;-0.40;58.70;-1.10;98689.00;;;;5115039;28;20201;-77
2022/03/06 08:07:42;;;;;;;2.53;2.07;;;-0.20;58.70;-0.80;98698.00;;;;5114772;28;20233;-77
2022/03/06 08:10:09;;;;;;;1.70;1.60;;;0.00;59.20;-0.60;98693.00;;;;5114917;28;20194;-77
2022/03/06 08:12:36;;;;;;;1.43;1.43;;;0.20;59.30;-0.50;98689.00;;;;5114748;28;20237;-77
2022/03/06 08:15:03;;;;;;;1.23;1.23;;;0.40;60.10;-0.40;98695.00;;;;5114828;28;20198;-78
2022/03/06 08:17:30;;;;;;;1.43;1.33;;;0.50;60.80;-0.10;98693.00;;;;5096916;28;20206;-78
2022/03/06 08:19:56;;;;;;;1.83;1.47;;;0.70;60.60;0.30;98695.00;;;;5114897;28;20288;-77
2022/03/06 08:22:24;;;;;;;1.00;0.87;;;1.00;59.90;0.40;98701.00;;;;5114868;28;20284;-77
2022/03/06 08:24:51;;;;;;;1.47;1.40;;;1.20;59.00;0.60;98694.00;;;;5114471;28;20229;-78
2022/03/06 08:27:17;;;;;;;1.40;1.33;;;1.40;58.30;0.70;98701.00;;;;5114168;28;20244;-77
2022/03/06 08:29:44;;;;;;;1.17;1.17;;;1.60;57.80;0.80;98685.00;;;;5096816;28;20237;-78
2022/03/06 08:32:11;;;;;;;2.53;2.20;;;1.60;57.50;0.80;98691.00;;;;5115038;28;20206;-78
2022/03/06 08:34:40;;;;;;;1.67;1.57;;;1.70;56.60;0.90;98691.00;;;;5114754;28;20190;-78
2022/03/06 08:37:06;;;;;;;2.00;1.90;;;1.80;55.90;1.30;98681.00;;;;5114542;28;20252;-78
2022/03/06 08:39:34;;;;;;;2.40;2.27;;;2.00;55.20;1.40;98685.00;;;;5114722;28;20352;-78
2022/03/06 08:42:01;;;;;;;2.07;1.97;;;2.20;54.90;1.60;98690.00;;;;5114474;28;20226;-78
2022/03/06 08:44:27;;;;;;;1.70;1.53;;;2.30;54.00;1.60;98689.00;;;;5114304;28;20197;-78
2022/03/06 08:46:54;;;;;;;1.73;1.63;;;2.40;53.40;1.90;98660.00;;;;5113993;28;20231;-77
2022/03/06 08:49:21;;;;;;;1.97;1.87;;;2.60;53.60;1.80;98692.00;;;;5114596;28;20215;-75
2022/03/06 08:51:47;;;;;;;2.07;1.97;;;2.70;51.90;2.00;98689.00;;;;5096464;28;20211;-78
2022/03/06 08:54:15;;;;;;;1.63;1.53;;;2.80;51.70;2.10;98691.00;;;;5114374;28;20201;-75
2022/03/06 08:56:44;;;;;;;2.17;2.07;;;2.90;51.10;2.00;98685.00;;;;5114295;28;20216;-75
2022/03/06 08:59:11;;;;;;;0.80;0.80;;;2.90;51.10;2.20;98693.00;;;;5114332;28;20217;-76
2022/03/06 09:01:40;;;;;;;1.50;1.40;;;3.00;50.90;2.30;98689.00;;;;5114404;28;20205;-76
2022/03/06 09:04:07;;;;;;;1.03;1.03;;;3.10;50.90;2.40;98694.00;;;;5114296;28;20227;-75
2022/03/06 09:06:33;;;;;;;2.10;1.43;;;3.20;50.40;2.50;98695.00;;;;5096497;28;20222;-76
2022/03/06 09:09:02;;;;;;;3.47;3.17;;;3.30;49.80;2.60;98684.00;;;;5114161;28;20227;-76
2022/03/06 09:11:29;;;;;;;8.67;1.70;;;3.40;48.80;2.70;98689.00;;;;5114070;28;20206;-76
2022/03/06 09:13:56;;;;;;;1.90;1.80;;;3.50;48.80;2.80;98693.00;;;;5113950;28;20299;-76
2022/03/06 09:16:23;;;;;;;1.20;1.20;;;3.60;48.30;2.80;98685.00;;;;5114031;28;20496;-76
2022/03/06 09:18:49;;;;;;;2.00;1.50;;;3.70;47.60;2.90;98695.00;;;;5114059;28;20648;-76
2022/03/06 09:21:16;;;;;;;1.03;1.03;;;3.70;47.60;2.90;98685.00;;;;5113802;28;20245;-76
2022/03/06 09:23:45;;;;;;;1.20;1.10;;;3.70;47.70;3.20;98689.00;;;;5096032;28;20495;-77
2022/03/06 09:26:12;;;;;;;1.70;1.60;;;3.90;47.00;3.10;98690.00;;;;5113863;28;20226;-76
2022/03/06 09:28:40;;;;;;;1.17;1.17;;;3.90;46.20;3.30;98692.00;;;;5113904;28;20194;-76
2022/03/06 09:31:10;;;;;;;2.17;2.00;;;4.00;46.40;3.30;98683.00;;;;5113775;28;20265;-76
2022/03/06 09:33:38;;;;;;;7.10;2.33;;;4.10;46.10;3.40;98680.00;;;;5113803;28;20585;-77
2022/03/06 09:36:05;;;;;;;1.23;1.23;;;4.10;45.70;3.70;98676.00;;;;5112715;28;20213;-77
2022/03/06 09:38:32;;;;;;;8.30;3.50;;;4.30;45.10;3.60;98679.00;;;;5115625;28;20277;-78
2022/03/06 09:41:03;;;;;;;1.17;1.17;;;4.40;44.70;3.70;98679.00;;;;5117224;28;20649;-77
2022/03/06 09:43:30;;;;;;;1.50;1.50;;;4.50;43.80;3.80;98685.00;;;;5117038;28;20236;-76
2022/03/06 09:46:04;;;;;;;2.00;1.40;;;4.60;43.30;3.90;98683.00;;;;5116989;28;20207;-77
2022/03/06 09:48:33;;;;;;;1.80;1.70;;;4.70;42.50;4.00;98688.00;;;;5099196;28;20222;-77
2022/03/06 09:51:02;;;;;;;1.57;1.47;;;4.70;41.90;4.00;98666.00;;;;5117357;28;20202;-77
2022/03/06 09:53:31;;;;;;;2.27;2.07;;;4.80;41.90;4.20;98679.00;;;;5116941;28;20201;-76
2022/03/06 09:55:58;;;;;;;2.27;2.10;;;4.90;41.10;4.20;98679.00;;;;5117187;28;20198;-77
2022/03/06 09:58:24;;;;;;;0.80;0.80;;;5.00;40.60;4.20;98680.00;;;;5117034;28;20202;-76
2022/03/06 10:00:53;;;;;;;2.70;1.70;;;5.00;41.00;4.40;98671.00;;;;5117004;28;20247;-77
2022/03/06 10:03:22;;;;;;;1.80;1.70;;;5.10;40.30;4.40;98677.00;;;;5116979;28;20272;-77
2022/03/06 10:05:50;;;;;;;1.87;1.77;;;5.20;40.40;4.50;98678.00;;;;5098876;28;20234;-77
2022/03/06 10:08:23;;;;;;;1.97;1.87;;;5.30;40.10;4.80;98676.00;;;;5098942;28;20216;-76
2022/03/06 10:10:55;;;;;;;2.37;2.20;;;5.40;39.70;5.00;98682.00;;;;5116713;28;20214;-76
2022/03/06 10:13:29;;;;;;;1.73;1.63;;;5.60;39.40;5.00;98684.00;;;;5116788;28;20285;-77
2022/03/06 10:16:11;;;;;;;2.33;2.13;;;5.60;39.60;5.10;98689.00;;;;5116598;28;20213;-77
2022/03/06 10:18:41;;;;;;;1.53;1.53;;;5.80;39.30;5.20;98690.00;;;;5116756;28;20635;-77
2022/03/06 10:21:21;;;;;;;2.37;2.17;;;5.90;38.50;5.10;98684.00;;;;5116750;28;20366;-76
2022/03/06 10:23:53;;;;;;;1.77;1.67;;;5.90;38.00;5.10;98694.00;;;;5116744;28;20198;-76
2022/03/06 10:26:22;;;;;;;2.63;2.43;;;5.80;37.10;5.00;98683.00;;;;5116429;28;20297;-77
2022/03/06 10:28:57;;;;;;;2.23;1.40;;;5.80;37.10;5.20;98697.00;;;;5116282;28;20236;-78
2022/03/06 10:31:26;;;;;;;2.10;2.00;;;5.80;37.90;5.20;98695.00;;;;5116596;28;20315;-77
2022/03/06 10:34:04;;;;;;;1.93;1.83;;;5.90;37.90;5.00;98691.00;;;;5116414;28;20215;-78
2022/03/06 10:36:40;;;;;;;3.00;2.10;;;5.80;36.60;5.10;98691.00;;;;5116404;28;20458;-77
2022/03/06 10:39:14;;;;;;;2.23;1.80;;;5.80;36.40;5.20;98698.00;;;;5116247;28;20241;-77
2022/03/06 10:41:43;;;;;;;2.37;2.17;;;5.90;36.20;5.30;98690.00;;;;5116144;28;20210;-78
2022/03/06 10:44:11;;;;;;;2.63;2.33;;;5.90;35.90;5.30;98686.00;;;;5116078;28;20259;-76
2022/03/06 10:46:39;;;;;;;1.60;1.50;;;6.00;35.60;5.50;98677.00;;;;5116151;28;20312;-77
2022/03/06 10:49:12;;;;;;;3.70;2.63;;;6.10;35.00;5.60;98682.00;;;;5115727;28;20205;-76
2022/03/06 10:51:45;;;;;;;3.03;2.73;;;6.20;34.80;5.40;98679.00;;;;5116041;28;20218;-74
2022/03/06 10:54:14;;;;;;;2.23;1.97;;;6.10;34.30;5.60;98671.00;;;;5098220;28;20198;-78
2022/03/06 10:56:49;;;;;;;1.97;1.87;;;6.30;34.30;5.90;98681.00;;;;5116088;28;20203;-79
2022/03/06 10:59:19;;;;;;;1.23;1.23;;;6.40;33.40;6.10;98675.00;;;;5098369;28;20308;-79